Merry Christmas and Happy New Year!

 

Sretan Božić i Nova godina!

 

METAR

METAR LDZA 301430Z 24006KT CAVOK 06/M00 Q1011 TEMPO 22010KT =
METAR LDSP 301430Z 29007KT CAVOK 09/M06 Q1016 NOSIG=
METAR LDDU 301430Z VRB06KT CAVOK 07/M07 Q1015 NOSIG =
METAR LDZD 301430Z 28006KT 240V310 9999 FEW027 SCT040 09/01 Q1015 NOSIG =
METAR LDPL 301430Z 27010KT CAVOK 08/M00 Q1015 NOSIG=
METAR LDOS 301430Z 23009KT CAVOK 05/M00 Q1011=
METAR LDRI 301430Z 21005KT 170V260 9999 FEW037 09/M01 Q1014=

TAF

TAF LDZA 301125Z 3012/0112 23006KT CAVOK
                 TX10/0111Z TN03/0105Z
           TEMPO 3012/3020 22010KT
           BECMG 0110/0112 22012KT=         
TAF LDSP 301125Z 3012/0112 31012KT CAVOK
                 TX13/0111Z TN05/3023Z
    PROB30 TEMPO 3012/3014 34015G25KT
           BECMG 3015/3017 01007KT
           BECMG 0110/0112 11010KT=         
TAF LDDU 301125Z 3012/0112 34012KT CAVOK
                 TX12/0111Z TN04/3023Z
    PROB30 TEMPO 3012/3014 VRB10KT
           BECMG 3016/3018 02012KT
           BECMG 0106/0108 09008KT
           BECMG 0110/0112 11014KT=         
TAF LDZD 301125Z 3012/0112 31010KT CAVOK
                 TX14/0111Z TN01/0102Z
           BECMG 3018/3020 27005KT
           BECMG 0109/0111 12015KT=         
TAF LDPL 301125Z 3012/0112 26010KT CAVOK
                 TX12/0111Z TN02/0104Z
           BECMG 3018/3020 25006KT
           BECMG 0108/0110 24010KT=         
TAF LDOS 301125Z 3012/0112 26012KT CAVOK
                 TX12/0111Z TN02/0106Z
           BECMG 0101/0103 23005KT
           BECMG 0107/0109 26012KT=         
TAF LDRI 301125Z 3012/0112 14006KT CAVOK
                 TX12/0111Z TN05/0102Z
           BECMG 0107/0109 20006KT=         
TAF LDSB NIL=         
TAF AMD LDLO 301403Z 3014/0112 CNL=

SIGMET

AIRMET

If you cannot log in with your user account, please contact stjepko.jancijev@crocontrol.hr.
Specifically, the website deactivates user accounts that have not been used for more than 365 days, so they must be reactivated.
 

         

      Politika MET podataka      

 

Ukoliko se svojim korisničkim računom ne možete logirati na web stranicu, molim vas da se obratite na stjepko.jancijev@crocontrol.hr.

Naime, web stranica deaktivira korisničke račune koji nisu korišteni više od 365 dana te ih je potrebno ponovno aktivirati.